sensor_id;sensor_type;location;lat;lon;timestamp;temperature;humidity
48988;DHT22;34799;51.440;-2.534;2023-02-05T00:01:31;9.50;99.90
48988;DHT22;34799;51.440;-2.534;2023-02-05T00:03:59;9.70;99.90
48988;DHT22;34799;51.440;-2.534;2023-02-05T00:06:27;9.60;99.90
48988;DHT22;34799;51.440;-2.534;2023-02-05T00:08:56;9.60;99.90
48988;DHT22;34799;51.440;-2.534;2023-02-05T00:11:24;9.60;99.90
48988;DHT22;34799;51.440;-2.534;2023-02-05T00:13:52;9.60;99.90
48988;DHT22;34799;51.440;-2.534;2023-02-05T00:16:23;9.60;99.90
48988;DHT22;34799;51.440;-2.534;2023-02-05T00:18:51;9.60;99.90
48988;DHT22;34799;51.440;-2.534;2023-02-05T00:21:19;9.70;99.90
48988;DHT22;34799;51.440;-2.534;2023-02-05T00:23:48;9.60;99.90
48988;DHT22;34799;51.440;-2.534;2023-02-05T00:26:16;9.60;99.90
48988;DHT22;34799;51.440;-2.534;2023-02-05T00:28:43;9.50;99.90
48988;DHT22;34799;51.440;-2.534;2023-02-05T00:31:13;9.50;99.90
48988;DHT22;34799;51.440;-2.534;2023-02-05T00:33:41;9.10;99.90
48988;DHT22;34799;51.440;-2.534;2023-02-05T00:36:10;8.80;99.90
48988;DHT22;34799;51.440;-2.534;2023-02-05T00:38:39;8.60;99.90
48988;DHT22;34799;51.440;-2.534;2023-02-05T00:41:08;8.70;99.90
48988;DHT22;34799;51.440;-2.534;2023-02-05T00:43:37;8.30;99.90
48988;DHT22;34799;51.440;-2.534;2023-02-05T00:46:05;8.20;99.90
48988;DHT22;34799;51.440;-2.534;2023-02-05T00:48:33;8.30;99.90
48988;DHT22;34799;51.440;-2.534;2023-02-05T00:51:00;8.00;99.90
48988;DHT22;34799;51.440;-2.534;2023-02-05T00:53:27;8.60;99.90
48988;DHT22;34799;51.440;-2.534;2023-02-05T00:55:54;8.10;99.90
48988;DHT22;34799;51.440;-2.534;2023-02-05T00:58:21;8.10;99.90
48988;DHT22;34799;51.440;-2.534;2023-02-05T01:00:49;8.60;99.90
48988;DHT22;34799;51.440;-2.534;2023-02-05T01:03:18;8.30;99.90
48988;DHT22;34799;51.440;-2.534;2023-02-05T01:05:46;8.50;99.90
48988;DHT22;34799;51.440;-2.534;2023-02-05T01:08:14;8.50;99.90
48988;DHT22;34799;51.440;-2.534;2023-02-05T01:10:46;8.20;99.90
48988;DHT22;34799;51.440;-2.534;2023-02-05T01:13:15;8.40;99.90
48988;DHT22;34799;51.440;-2.534;2023-02-05T01:15:44;8.00;99.90
48988;DHT22;34799;51.440;-2.534;2023-02-05T01:18:12;8.00;99.90
48988;DHT22;34799;51.440;-2.534;2023-02-05T01:20:40;8.30;99.90
48988;DHT22;34799;51.440;-2.534;2023-02-05T01:23:07;8.10;99.90
48988;DHT22;34799;51.440;-2.534;2023-02-05T01:25:37;8.60;99.90
48988;DHT22;34799;51.440;-2.534;2023-02-05T01:28:04;8.60;99.90
48988;DHT22;34799;51.440;-2.534;2023-02-05T01:30:33;7.90;99.90
48988;DHT22;34799;51.440;-2.534;2023-02-05T01:33:01;8.90;99.90
48988;DHT22;34799;51.440;-2.534;2023-02-05T01:35:30;8.00;99.90
48988;DHT22;34799;51.440;-2.534;2023-02-05T01:37:57;8.10;99.90
48988;DHT22;34799;51.440;-2.534;2023-02-05T01:40:24;8.20;99.90
48988;DHT22;34799;51.440;-2.534;2023-02-05T01:42:51;8.20;99.90
48988;DHT22;34799;51.440;-2.534;2023-02-05T01:47:51;8.10;99.90
48988;DHT22;34799;51.440;-2.534;2023-02-05T01:50:26;8.60;99.90
48988;DHT22;34799;51.440;-2.534;2023-02-05T01:52:55;8.00;99.90
48988;DHT22;34799;51.440;-2.534;2023-02-05T01:55:24;8.20;99.90
48988;DHT22;34799;51.440;-2.534;2023-02-05T01:57:52;8.20;99.90
48988;DHT22;34799;51.440;-2.534;2023-02-05T02:00:21;8.40;99.90
48988;DHT22;34799;51.440;-2.534;2023-02-05T02:02:50;8.20;99.90
48988;DHT22;34799;51.440;-2.534;2023-02-05T02:05:17;8.50;99.90
48988;DHT22;34799;51.440;-2.534;2023-02-05T02:07:44;8.20;99.90
48988;DHT22;34799;51.440;-2.534;2023-02-05T02:10:13;8.20;99.90
48988;DHT22;34799;51.440;-2.534;2023-02-05T02:12:44;8.10;99.90
48988;DHT22;34799;51.440;-2.534;2023-02-05T02:15:15;8.10;99.90
48988;DHT22;34799;51.440;-2.534;2023-02-05T02:17:47;7.90;99.90
48988;DHT22;34799;51.440;-2.534;2023-02-05T02:20:20;8.40;99.90
48988;DHT22;34799;51.440;-2.534;2023-02-05T02:22:57;7.90;99.90
48988;DHT22;34799;51.440;-2.534;2023-02-05T02:28:33;8.00;99.90
48988;DHT22;34799;51.440;-2.534;2023-02-05T02:31:08;8.80;99.90
48988;DHT22;34799;51.440;-2.534;2023-02-05T02:33:45;8.00;99.90
48988;DHT22;34799;51.440;-2.534;2023-02-05T02:38:56;7.90;99.90
48988;DHT22;34799;51.440;-2.534;2023-02-05T02:41:38;7.90;99.90
48988;DHT22;34799;51.440;-2.534;2023-02-05T02:44:14;7.90;99.90
48988;DHT22;34799;51.440;-2.534;2023-02-05T02:46:51;8.00;99.90
48988;DHT22;34799;51.440;-2.534;2023-02-05T02:49:37;8.30;99.90
48988;DHT22;34799;51.440;-2.534;2023-02-05T02:52:08;7.90;99.90
48988;DHT22;34799;51.440;-2.534;2023-02-05T02:54:39;7.70;99.90
48988;DHT22;34799;51.440;-2.534;2023-02-05T02:57:09;7.60;99.90
48988;DHT22;34799;51.440;-2.534;2023-02-05T02:59:39;7.80;99.90
48988;DHT22;34799;51.440;-2.534;2023-02-05T03:02:10;7.50;99.90
48988;DHT22;34799;51.440;-2.534;2023-02-05T03:04:44;8.10;99.90
48988;DHT22;34799;51.440;-2.534;2023-02-05T03:07:19;7.80;99.90
48988;DHT22;34799;51.440;-2.534;2023-02-05T03:10:00;7.20;99.90
48988;DHT22;34799;51.440;-2.534;2023-02-05T03:12:29;7.30;99.90
48988;DHT22;34799;51.440;-2.534;2023-02-05T03:14:56;7.20;99.90
48988;DHT22;34799;51.440;-2.534;2023-02-05T03:17:26;7.20;99.90
48988;DHT22;34799;51.440;-2.534;2023-02-05T03:20:18;7.60;99.90
48988;DHT22;34799;51.440;-2.534;2023-02-05T03:22:56;6.70;99.90
48988;DHT22;34799;51.440;-2.534;2023-02-05T03:30:02;6.30;99.90
48988;DHT22;34799;51.440;-2.534;2023-02-05T03:34:01;6.20;99.90
48988;DHT22;34799;51.440;-2.534;2023-02-05T04:16:43;5.40;99.90
48988;DHT22;34799;51.440;-2.534;2023-02-05T04:19:36;5.80;99.90
48988;DHT22;34799;51.440;-2.534;2023-02-05T04:22:29;7.50;99.90
48988;DHT22;34799;51.440;-2.534;2023-02-05T04:25:16;5.40;99.90
48988;DHT22;34799;51.440;-2.534;2023-02-05T04:28:04;7.10;99.90
48988;DHT22;34799;51.440;-2.534;2023-02-05T04:30:33;5.90;99.90
48988;DHT22;34799;51.440;-2.534;2023-02-05T04:33:01;6.60;99.90
48988;DHT22;34799;51.440;-2.534;2023-02-05T04:35:28;5.30;99.90
48988;DHT22;34799;51.440;-2.534;2023-02-05T04:37:58;5.30;99.90
48988;DHT22;34799;51.440;-2.534;2023-02-05T04:40:25;5.30;99.90
48988;DHT22;34799;51.440;-2.534;2023-02-05T04:42:52;5.20;99.90
48988;DHT22;34799;51.440;-2.534;2023-02-05T04:45:19;5.20;99.90
48988;DHT22;34799;51.440;-2.534;2023-02-05T04:47:46;6.10;99.90
48988;DHT22;34799;51.440;-2.534;2023-02-05T04:50:15;5.20;99.90
48988;DHT22;34799;51.440;-2.534;2023-02-05T04:52:42;5.10;99.90
48988;DHT22;34799;51.440;-2.534;2023-02-05T04:55:09;5.10;99.90
48988;DHT22;34799;51.440;-2.534;2023-02-05T04:57:36;5.10;99.90
48988;DHT22;34799;51.440;-2.534;2023-02-05T05:00:03;5.20;99.90
48988;DHT22;34799;51.440;-2.534;2023-02-05T05:02:31;5.20;99.90
48988;DHT22;34799;51.440;-2.534;2023-02-05T05:04:59;5.30;99.90
48988;DHT22;34799;51.440;-2.534;2023-02-05T05:07:29;5.30;99.90
48988;DHT22;34799;51.440;-2.534;2023-02-05T05:09:56;5.60;99.90
48988;DHT22;34799;51.440;-2.534;2023-02-05T05:12:23;5.40;99.90
48988;DHT22;34799;51.440;-2.534;2023-02-05T05:14:51;6.00;99.90
48988;DHT22;34799;51.440;-2.534;2023-02-05T05:17:18;5.40;99.90
48988;DHT22;34799;51.440;-2.534;2023-02-05T05:19:45;5.40;99.90
48988;DHT22;34799;51.440;-2.534;2023-02-05T05:22:12;5.50;99.90
48988;DHT22;34799;51.440;-2.534;2023-02-05T05:24:39;6.30;99.90
48988;DHT22;34799;51.440;-2.534;2023-02-05T05:27:06;6.40;99.90
48988;DHT22;34799;51.440;-2.534;2023-02-05T05:29:34;6.00;99.90
48988;DHT22;34799;51.440;-2.534;2023-02-05T05:32:03;5.60;99.90
48988;DHT22;34799;51.440;-2.534;2023-02-05T05:34:30;5.60;99.90
48988;DHT22;34799;51.440;-2.534;2023-02-05T05:36:57;5.70;99.90
48988;DHT22;34799;51.440;-2.534;2023-02-05T05:39:24;5.70;99.90
48988;DHT22;34799;51.440;-2.534;2023-02-05T05:42:10;5.70;99.90
48988;DHT22;34799;51.440;-2.534;2023-02-05T05:44:57;6.50;99.90
48988;DHT22;34799;51.440;-2.534;2023-02-05T05:47:24;6.70;99.90
48988;DHT22;34799;51.440;-2.534;2023-02-05T05:49:51;6.20;99.90
48988;DHT22;34799;51.440;-2.534;2023-02-05T05:52:19;5.70;99.90
48988;DHT22;34799;51.440;-2.534;2023-02-05T05:54:46;5.50;99.90
48988;DHT22;34799;51.440;-2.534;2023-02-05T05:57:13;5.50;99.90
48988;DHT22;34799;51.440;-2.534;2023-02-05T05:59:41;6.50;99.90
48988;DHT22;34799;51.440;-2.534;2023-02-05T06:02:08;5.60;99.90
48988;DHT22;34799;51.440;-2.534;2023-02-05T06:04:35;5.60;99.90
48988;DHT22;34799;51.440;-2.534;2023-02-05T06:07:02;5.50;99.90
48988;DHT22;34799;51.440;-2.534;2023-02-05T06:09:29;6.40;99.90
48988;DHT22;34799;51.440;-2.534;2023-02-05T06:11:56;7.00;99.90
48988;DHT22;34799;51.440;-2.534;2023-02-05T06:14:23;5.60;99.90
48988;DHT22;34799;51.440;-2.534;2023-02-05T06:16:51;5.40;99.90
48988;DHT22;34799;51.440;-2.534;2023-02-05T06:19:21;5.40;99.90
48988;DHT22;34799;51.440;-2.534;2023-02-05T06:21:49;5.80;99.90
48988;DHT22;34799;51.440;-2.534;2023-02-05T06:24:18;6.90;99.90
48988;DHT22;34799;51.440;-2.534;2023-02-05T06:26:45;5.40;99.90
48988;DHT22;34799;51.440;-2.534;2023-02-05T06:29:12;5.40;99.90
48988;DHT22;34799;51.440;-2.534;2023-02-05T06:31:39;5.50;99.90
48988;DHT22;34799;51.440;-2.534;2023-02-05T06:34:06;5.50;99.90
48988;DHT22;34799;51.440;-2.534;2023-02-05T06:36:33;5.50;99.90
48988;DHT22;34799;51.440;-2.534;2023-02-05T06:39:00;6.20;99.90
48988;DHT22;34799;51.440;-2.534;2023-02-05T06:41:28;5.90;99.90
48988;DHT22;34799;51.440;-2.534;2023-02-05T06:43:55;5.40;99.90
48988;DHT22;34799;51.440;-2.534;2023-02-05T06:46:22;5.50;99.90
48988;DHT22;34799;51.440;-2.534;2023-02-05T06:48:49;5.60;99.90
48988;DHT22;34799;51.440;-2.534;2023-02-05T06:51:16;5.60;99.90
48988;DHT22;34799;51.440;-2.534;2023-02-05T06:53:43;5.50;99.90
48988;DHT22;34799;51.440;-2.534;2023-02-05T06:56:10;5.50;99.90
48988;DHT22;34799;51.440;-2.534;2023-02-05T06:58:38;5.40;99.90
48988;DHT22;34799;51.440;-2.534;2023-02-05T07:01:05;5.30;99.90
48988;DHT22;34799;51.440;-2.534;2023-02-05T07:03:32;5.20;99.90
48988;DHT22;34799;51.440;-2.534;2023-02-05T07:06:03;5.20;99.90
48988;DHT22;34799;51.440;-2.534;2023-02-05T07:08:32;5.00;99.90
48988;DHT22;34799;51.440;-2.534;2023-02-05T07:11:00;5.00;99.90
48988;DHT22;34799;51.440;-2.534;2023-02-05T07:13:28;4.90;99.90
48988;DHT22;34799;51.440;-2.534;2023-02-05T07:16:01;4.90;99.90
48988;DHT22;34799;51.440;-2.534;2023-02-05T07:18:29;4.70;99.90
48988;DHT22;34799;51.440;-2.534;2023-02-05T07:20:56;4.70;99.90
48988;DHT22;34799;51.440;-2.534;2023-02-05T07:23:24;4.60;99.90
48988;DHT22;34799;51.440;-2.534;2023-02-05T07:25:51;4.60;99.90
48988;DHT22;34799;51.440;-2.534;2023-02-05T07:28:18;4.60;99.90
48988;DHT22;34799;51.440;-2.534;2023-02-05T07:30:45;4.80;99.90
48988;DHT22;34799;51.440;-2.534;2023-02-05T07:33:13;4.60;99.90
48988;DHT22;34799;51.440;-2.534;2023-02-05T07:35:42;4.60;99.90
48988;DHT22;34799;51.440;-2.534;2023-02-05T07:38:09;4.40;99.90
48988;DHT22;34799;51.440;-2.534;2023-02-05T07:40:37;4.70;99.90
48988;DHT22;34799;51.440;-2.534;2023-02-05T07:43:04;4.50;99.90
48988;DHT22;34799;51.440;-2.534;2023-02-05T07:45:31;4.40;99.90
48988;DHT22;34799;51.440;-2.534;2023-02-05T07:47:58;4.50;99.90
48988;DHT22;34799;51.440;-2.534;2023-02-05T07:50:26;4.50;99.90
48988;DHT22;34799;51.440;-2.534;2023-02-05T07:52:53;4.40;99.90
48988;DHT22;34799;51.440;-2.534;2023-02-05T07:55:20;4.30;99.90
48988;DHT22;34799;51.440;-2.534;2023-02-05T07:57:47;4.30;99.90
48988;DHT22;34799;51.440;-2.534;2023-02-05T08:00:14;6.80;99.90
48988;DHT22;34799;51.440;-2.534;2023-02-05T08:02:41;4.40;99.90
48988;DHT22;34799;51.440;-2.534;2023-02-05T08:05:08;4.30;99.90
48988;DHT22;34799;51.440;-2.534;2023-02-05T08:07:37;4.30;99.90
48988;DHT22;34799;51.440;-2.534;2023-02-05T08:10:04;4.40;99.90
48988;DHT22;34799;51.440;-2.534;2023-02-05T08:12:31;4.40;99.90
48988;DHT22;34799;51.440;-2.534;2023-02-05T08:14:58;5.00;99.90
48988;DHT22;34799;51.440;-2.534;2023-02-05T08:17:26;4.50;99.90
48988;DHT22;34799;51.440;-2.534;2023-02-05T08:19:54;5.30;99.90
48988;DHT22;34799;51.440;-2.534;2023-02-05T08:22:21;4.40;99.90
48988;DHT22;34799;51.440;-2.534;2023-02-05T08:24:48;5.80;99.90
48988;DHT22;34799;51.440;-2.534;2023-02-05T08:27:15;5.00;99.90
48988;DHT22;34799;51.440;-2.534;2023-02-05T08:29:46;5.50;99.90
48988;DHT22;34799;51.440;-2.534;2023-02-05T08:32:14;5.10;99.90
48988;DHT22;34799;51.440;-2.534;2023-02-05T08:34:41;4.50;99.90
48988;DHT22;34799;51.440;-2.534;2023-02-05T08:37:09;4.50;99.90
48988;DHT22;34799;51.440;-2.534;2023-02-05T08:39:36;4.40;99.90
48988;DHT22;34799;51.440;-2.534;2023-02-05T08:42:03;4.30;99.90
48988;DHT22;34799;51.440;-2.534;2023-02-05T08:44:31;4.30;99.90
48988;DHT22;34799;51.440;-2.534;2023-02-05T08:46:58;4.30;99.90
48988;DHT22;34799;51.440;-2.534;2023-02-05T08:49:25;4.30;99.90
48988;DHT22;34799;51.440;-2.534;2023-02-05T08:51:52;4.30;99.90
48988;DHT22;34799;51.440;-2.534;2023-02-05T08:54:19;4.30;99.90
48988;DHT22;34799;51.440;-2.534;2023-02-05T08:56:49;4.20;99.90
48988;DHT22;34799;51.440;-2.534;2023-02-05T08:59:17;4.20;99.90
48988;DHT22;34799;51.440;-2.534;2023-02-05T09:01:45;4.20;99.90
48988;DHT22;34799;51.440;-2.534;2023-02-05T09:04:17;4.30;99.90
48988;DHT22;34799;51.440;-2.534;2023-02-05T09:09:12;4.30;99.90
48988;DHT22;34799;51.440;-2.534;2023-02-05T09:11:40;4.30;99.90
48988;DHT22;34799;51.440;-2.534;2023-02-05T09:14:09;4.70;99.90
48988;DHT22;34799;51.440;-2.534;2023-02-05T09:16:36;4.40;99.90
48988;DHT22;34799;51.440;-2.534;2023-02-05T09:19:03;5.50;99.90
48988;DHT22;34799;51.440;-2.534;2023-02-05T09:21:30;4.70;99.90
48988;DHT22;34799;51.440;-2.534;2023-02-05T09:23:57;5.50;99.90
48988;DHT22;34799;51.440;-2.534;2023-02-05T09:26:25;4.60;99.90
48988;DHT22;34799;51.440;-2.534;2023-02-05T09:28:53;4.60;99.90
48988;DHT22;34799;51.440;-2.534;2023-02-05T09:31:20;4.70;99.90
48988;DHT22;34799;51.440;-2.534;2023-02-05T09:33:47;6.60;99.90
48988;DHT22;34799;51.440;-2.534;2023-02-05T09:36:20;5.60;99.90
48988;DHT22;34799;51.440;-2.534;2023-02-05T09:38:48;4.90;99.90
48988;DHT22;34799;51.440;-2.534;2023-02-05T09:41:31;4.90;99.90
48988;DHT22;34799;51.440;-2.534;2023-02-05T09:44:07;5.00;99.90
48988;DHT22;34799;51.440;-2.534;2023-02-05T09:49:26;5.00;99.90
48988;DHT22;34799;51.440;-2.534;2023-02-05T09:52:03;5.10;99.90
48988;DHT22;34799;51.440;-2.534;2023-02-05T09:54:35;5.20;99.90
48988;DHT22;34799;51.440;-2.534;2023-02-05T09:57:14;5.20;99.90
48988;DHT22;34799;51.440;-2.534;2023-02-05T09:59:44;5.20;99.90
48988;DHT22;34799;51.440;-2.534;2023-02-05T10:02:28;5.30;99.90
48988;DHT22;34799;51.440;-2.534;2023-02-05T10:04:57;5.50;99.90
48988;DHT22;34799;51.440;-2.534;2023-02-05T10:20:55;5.90;99.90
48988;DHT22;34799;51.440;-2.534;2023-02-05T10:26:49;6.00;99.90
48988;DHT22;34799;51.440;-2.534;2023-02-05T10:29:44;6.00;99.90
48988;DHT22;34799;51.440;-2.534;2023-02-05T10:32:19;6.10;99.90
48988;DHT22;34799;51.440;-2.534;2023-02-05T10:34:59;6.10;99.90
48988;DHT22;34799;51.440;-2.534;2023-02-05T10:37:49;6.30;99.90
48988;DHT22;34799;51.440;-2.534;2023-02-05T10:40:21;6.40;99.90
48988;DHT22;34799;51.440;-2.534;2023-02-05T10:45:46;6.50;99.90
48988;DHT22;34799;51.440;-2.534;2023-02-05T10:50:57;6.60;99.90
48988;DHT22;34799;51.440;-2.534;2023-02-05T10:53:27;7.10;99.90
48988;DHT22;34799;51.440;-2.534;2023-02-05T10:55:56;6.60;99.90
48988;DHT22;34799;51.440;-2.534;2023-02-05T10:58:37;6.60;99.90
48988;DHT22;34799;51.440;-2.534;2023-02-05T11:01:11;6.60;99.90
48988;DHT22;34799;51.440;-2.534;2023-02-05T11:03:54;6.60;99.90
48988;DHT22;34799;51.440;-2.534;2023-02-05T11:06:25;6.70;99.90
48988;DHT22;34799;51.440;-2.534;2023-02-05T11:08:53;7.40;99.90
48988;DHT22;34799;51.440;-2.534;2023-02-05T11:11:24;6.90;99.90
48988;DHT22;34799;51.440;-2.534;2023-02-05T11:14:00;6.80;99.90
48988;DHT22;34799;51.440;-2.534;2023-02-05T11:16:42;6.90;99.90
48988;DHT22;34799;51.440;-2.534;2023-02-05T11:19:22;6.90;99.90
48988;DHT22;34799;51.440;-2.534;2023-02-05T11:24:42;7.00;99.90
48988;DHT22;34799;51.440;-2.534;2023-02-05T11:27:29;7.60;99.90
48988;DHT22;34799;51.440;-2.534;2023-02-05T11:30:55;7.10;99.90
48988;DHT22;34799;51.440;-2.534;2023-02-05T11:43:58;7.10;99.90
48988;DHT22;34799;51.440;-2.534;2023-02-05T11:46:28;7.70;99.90
48988;DHT22;34799;51.440;-2.534;2023-02-05T11:48:58;7.10;99.90
48988;DHT22;34799;51.440;-2.534;2023-02-05T11:51:47;7.10;99.90
48988;DHT22;34799;51.440;-2.534;2023-02-05T11:54:26;7.70;99.90
48988;DHT22;34799;51.440;-2.534;2023-02-05T11:59:59;7.10;99.90
48988;DHT22;34799;51.440;-2.534;2023-02-05T12:02:33;7.20;99.90
48988;DHT22;34799;51.440;-2.534;2023-02-05T12:07:45;7.30;99.90
48988;DHT22;34799;51.440;-2.534;2023-02-05T12:15:26;7.80;99.90
48988;DHT22;34799;51.440;-2.534;2023-02-05T12:18:20;8.00;99.90
48988;DHT22;34799;51.440;-2.534;2023-02-05T12:21:18;7.50;99.90
48988;DHT22;34799;51.440;-2.534;2023-02-05T12:26:44;7.50;99.90
48988;DHT22;34799;51.440;-2.534;2023-02-05T12:29:57;7.60;99.90
48988;DHT22;34799;51.440;-2.534;2023-02-05T12:32:22;5.40;99.90
48988;DHT22;34799;51.440;-2.534;2023-02-05T12:37:27;7.60;99.90
48988;DHT22;34799;51.440;-2.534;2023-02-05T12:42:43;7.60;99.90
48988;DHT22;34799;51.440;-2.534;2023-02-05T12:45:24;7.70;99.90
48988;DHT22;34799;51.440;-2.534;2023-02-05T12:48:21;7.70;99.90
48988;DHT22;34799;51.440;-2.534;2023-02-05T12:51:26;7.80;99.90
48988;DHT22;34799;51.440;-2.534;2023-02-05T12:56:54;7.90;99.90
48988;DHT22;34799;51.440;-2.534;2023-02-05T12:59:51;7.90;99.90
48988;DHT22;34799;51.440;-2.534;2023-02-05T13:13:21;8.00;99.90
48988;DHT22;34799;51.440;-2.534;2023-02-05T13:15:59;8.20;99.90
48988;DHT22;34799;51.440;-2.534;2023-02-05T13:18:31;8.30;99.90
48988;DHT22;34799;51.440;-2.534;2023-02-05T13:21:15;8.40;99.90
48988;DHT22;34799;51.440;-2.534;2023-02-05T13:24:32;8.50;99.90
48988;DHT22;34799;51.440;-2.534;2023-02-05T13:27:30;8.70;99.90
48988;DHT22;34799;51.440;-2.534;2023-02-05T13:30:32;9.00;99.90
48988;DHT22;34799;51.440;-2.534;2023-02-05T13:33:04;8.70;99.90
48988;DHT22;34799;51.440;-2.534;2023-02-05T13:46:48;8.60;99.90
48988;DHT22;34799;51.440;-2.534;2023-02-05T14:00:13;9.00;99.90
48988;DHT22;34799;51.440;-2.534;2023-02-05T14:02:41;9.10;99.90
48988;DHT22;34799;51.440;-2.534;2023-02-05T14:05:09;9.10;99.90
48988;DHT22;34799;51.440;-2.534;2023-02-05T14:07:48;9.00;99.90
48988;DHT22;34799;51.440;-2.534;2023-02-05T14:10:34;8.80;99.90
48988;DHT22;34799;51.440;-2.534;2023-02-05T14:13:26;8.70;99.90
48988;DHT22;34799;51.440;-2.534;2023-02-05T14:15:58;8.70;99.90
48988;DHT22;34799;51.440;-2.534;2023-02-05T14:18:47;8.70;99.90
48988;DHT22;34799;51.440;-2.534;2023-02-05T14:24:22;8.80;99.90
48988;DHT22;34799;51.440;-2.534;2023-02-05T14:26:51;8.90;99.90
48988;DHT22;34799;51.440;-2.534;2023-02-05T14:29:47;9.00;99.90
48988;DHT22;34799;51.440;-2.534;2023-02-05T14:37:45;9.10;99.90
48988;DHT22;34799;51.440;-2.534;2023-02-05T14:43:20;9.00;99.90
48988;DHT22;34799;51.440;-2.534;2023-02-05T14:45:44;8.90;99.90
48988;DHT22;34799;51.440;-2.534;2023-02-05T14:48:28;8.90;99.90
48988;DHT22;34799;51.440;-2.534;2023-02-05T14:51:36;8.90;99.90
48988;DHT22;34799;51.440;-2.534;2023-02-05T14:53:59;9.00;99.90
48988;DHT22;34799;51.440;-2.534;2023-02-05T14:56:36;9.00;99.90
48988;DHT22;34799;51.440;-2.534;2023-02-05T15:01:49;8.90;99.90
48988;DHT22;34799;51.440;-2.534;2023-02-05T15:06:59;8.90;99.90
48988;DHT22;34799;51.440;-2.534;2023-02-05T15:09:37;8.90;99.90
48988;DHT22;34799;51.440;-2.534;2023-02-05T15:12:34;9.10;99.90
48988;DHT22;34799;51.440;-2.534;2023-02-05T15:15:33;8.90;99.90
48988;DHT22;34799;51.440;-2.534;2023-02-05T15:18:04;8.90;99.90
48988;DHT22;34799;51.440;-2.534;2023-02-05T15:20:36;8.90;99.90
48988;DHT22;34799;51.440;-2.534;2023-02-05T15:23:14;9.00;99.90
48988;DHT22;34799;51.440;-2.534;2023-02-05T15:26:03;8.90;99.90
48988;DHT22;34799;51.440;-2.534;2023-02-05T15:28:39;9.00;99.90
48988;DHT22;34799;51.440;-2.534;2023-02-05T15:33:47;9.20;99.90
48988;DHT22;34799;51.440;-2.534;2023-02-05T15:36:46;9.20;99.90
48988;DHT22;34799;51.440;-2.534;2023-02-05T15:42:00;9.20;99.90
48988;DHT22;34799;51.440;-2.534;2023-02-05T15:44:32;9.20;99.90
48988;DHT22;34799;51.440;-2.534;2023-02-05T15:47:06;9.20;99.90
48988;DHT22;34799;51.440;-2.534;2023-02-05T15:49:42;9.20;99.90
48988;DHT22;34799;51.440;-2.534;2023-02-05T15:52:21;9.20;99.90
48988;DHT22;34799;51.440;-2.534;2023-02-05T15:54:50;8.50;99.90
48988;DHT22;34799;51.440;-2.534;2023-02-05T15:57:28;9.20;99.90
48988;DHT22;34799;51.440;-2.534;2023-02-05T15:59:57;9.10;99.90
48988;DHT22;34799;51.440;-2.534;2023-02-05T16:02:29;9.30;99.90
48988;DHT22;34799;51.440;-2.534;2023-02-05T16:05:02;9.40;99.90
48988;DHT22;34799;51.440;-2.534;2023-02-05T16:07:43;9.70;99.90
48988;DHT22;34799;51.440;-2.534;2023-02-05T16:10:17;10.10;99.90
48988;DHT22;34799;51.440;-2.534;2023-02-05T16:13:14;10.30;99.90
48988;DHT22;34799;51.440;-2.534;2023-02-05T16:18:39;10.80;99.90
48988;DHT22;34799;51.440;-2.534;2023-02-05T16:23:58;10.50;99.90
48988;DHT22;34799;51.440;-2.534;2023-02-05T16:26:44;10.20;99.90
48988;DHT22;34799;51.440;-2.534;2023-02-05T16:29:24;9.90;99.90
48988;DHT22;34799;51.440;-2.534;2023-02-05T16:32:02;9.90;99.90
48988;DHT22;34799;51.440;-2.534;2023-02-05T16:34:32;9.60;99.90
48988;DHT22;34799;51.440;-2.534;2023-02-05T16:37:03;9.50;99.90
48988;DHT22;34799;51.440;-2.534;2023-02-05T16:39:43;9.40;99.90
48988;DHT22;34799;51.440;-2.534;2023-02-05T16:43:00;9.40;99.90
48988;DHT22;34799;51.440;-2.534;2023-02-05T16:45:22;9.30;99.90
48988;DHT22;34799;51.440;-2.534;2023-02-05T16:48:19;9.20;99.90
48988;DHT22;34799;51.440;-2.534;2023-02-05T16:50:49;9.20;99.90
48988;DHT22;34799;51.440;-2.534;2023-02-05T16:53:25;8.90;99.90
48988;DHT22;34799;51.440;-2.534;2023-02-05T16:56:10;8.80;99.90
48988;DHT22;34799;51.440;-2.534;2023-02-05T16:58:47;8.80;99.90
48988;DHT22;34799;51.440;-2.534;2023-02-05T17:01:27;8.70;99.90
48988;DHT22;34799;51.440;-2.534;2023-02-05T17:03:55;8.60;99.90
48988;DHT22;34799;51.440;-2.534;2023-02-05T17:06:23;8.50;99.90
48988;DHT22;34799;51.440;-2.534;2023-02-05T17:08:53;9.10;99.90
48988;DHT22;34799;51.440;-2.534;2023-02-05T17:11:34;8.30;99.90
48988;DHT22;34799;51.440;-2.534;2023-02-05T17:14:27;8.20;99.90
48988;DHT22;34799;51.440;-2.534;2023-02-05T17:17:16;8.10;99.90
48988;DHT22;34799;51.440;-2.534;2023-02-05T17:20:01;8.30;99.90
48988;DHT22;34799;51.440;-2.534;2023-02-05T17:22:30;8.00;99.90
48988;DHT22;34799;51.440;-2.534;2023-02-05T17:24:58;8.60;99.90
48988;DHT22;34799;51.440;-2.534;2023-02-05T17:27:34;8.00;99.90
48988;DHT22;34799;51.440;-2.534;2023-02-05T17:30:05;8.00;99.90
48988;DHT22;34799;51.440;-2.534;2023-02-05T17:32:36;8.00;99.90
48988;DHT22;34799;51.440;-2.534;2023-02-05T17:35:12;8.20;99.90
48988;DHT22;34799;51.440;-2.534;2023-02-05T17:37:39;7.90;99.90
48988;DHT22;34799;51.440;-2.534;2023-02-05T17:40:06;8.10;99.90
48988;DHT22;34799;51.440;-2.534;2023-02-05T17:42:35;7.70;99.90
48988;DHT22;34799;51.440;-2.534;2023-02-05T17:45:04;7.70;99.90
48988;DHT22;34799;51.440;-2.534;2023-02-05T17:47:36;7.60;99.90
48988;DHT22;34799;51.440;-2.534;2023-02-05T17:50:04;7.60;99.90
48988;DHT22;34799;51.440;-2.534;2023-02-05T17:52:31;7.60;99.90
48988;DHT22;34799;51.440;-2.534;2023-02-05T17:54:58;8.00;99.90
48988;DHT22;34799;51.440;-2.534;2023-02-05T17:57:25;7.60;99.90
48988;DHT22;34799;51.440;-2.534;2023-02-05T17:59:54;7.60;99.90
48988;DHT22;34799;51.440;-2.534;2023-02-05T18:02:22;7.50;99.90
48988;DHT22;34799;51.440;-2.534;2023-02-05T18:04:49;7.70;99.90
48988;DHT22;34799;51.440;-2.534;2023-02-05T18:07:24;8.20;99.90
48988;DHT22;34799;51.440;-2.534;2023-02-05T18:09:56;7.50;99.90
48988;DHT22;34799;51.440;-2.534;2023-02-05T18:12:25;7.50;99.90
48988;DHT22;34799;51.440;-2.534;2023-02-05T18:14:53;7.50;99.90
48988;DHT22;34799;51.440;-2.534;2023-02-05T18:17:20;7.50;99.90
48988;DHT22;34799;51.440;-2.534;2023-02-05T18:19:48;7.50;99.90
48988;DHT22;34799;51.440;-2.534;2023-02-05T18:22:15;7.50;99.90
48988;DHT22;34799;51.440;-2.534;2023-02-05T18:24:42;7.50;99.90
48988;DHT22;34799;51.440;-2.534;2023-02-05T18:27:10;7.50;99.90
48988;DHT22;34799;51.440;-2.534;2023-02-05T18:29:41;7.80;99.90
48988;DHT22;34799;51.440;-2.534;2023-02-05T18:32:09;7.40;99.90
48988;DHT22;34799;51.440;-2.534;2023-02-05T18:34:36;8.00;99.90
48988;DHT22;34799;51.440;-2.534;2023-02-05T18:37:05;7.30;99.90
48988;DHT22;34799;51.440;-2.534;2023-02-05T18:39:34;7.30;99.90
48988;DHT22;34799;51.440;-2.534;2023-02-05T18:42:01;7.20;99.90
48988;DHT22;34799;51.440;-2.534;2023-02-05T18:44:28;7.40;99.90
48988;DHT22;34799;51.440;-2.534;2023-02-05T18:46:55;7.70;99.90
48988;DHT22;34799;51.440;-2.534;2023-02-05T18:49:22;7.10;99.90
48988;DHT22;34799;51.440;-2.534;2023-02-05T18:51:50;7.30;99.90
48988;DHT22;34799;51.440;-2.534;2023-02-05T18:54:19;7.00;99.90
48988;DHT22;34799;51.440;-2.534;2023-02-05T18:56:46;7.00;99.90
48988;DHT22;34799;51.440;-2.534;2023-02-05T18:59:15;7.00;99.90
48988;DHT22;34799;51.440;-2.534;2023-02-05T19:01:43;7.60;99.90